createdAt,value
2022-12-13T00:00:52.134Z,101442.13
2022-12-13T00:03:24.100Z,101440.72
2022-12-13T00:05:56.056Z,101436.03
2022-12-13T00:08:28.027Z,101440.53
2022-12-13T00:11:06.597Z,101434.19
2022-12-13T00:13:39.272Z,101431.97
2022-12-13T00:16:18.803Z,101432.31
2022-12-13T00:18:55.675Z,101418.63
2022-12-13T00:21:31.186Z,101421.72
2022-12-13T00:24:03.355Z,101416.78
2022-12-13T00:26:36.059Z,101412.38
2022-12-13T00:29:09.119Z,101414.13
2022-12-13T00:32:00.388Z,101417.78
2022-12-13T00:34:32.988Z,101422.09
2022-12-13T00:37:05.009Z,101414.50
2022-12-13T00:39:37.054Z,101410.44
2022-12-13T00:42:09.151Z,101410.69
2022-12-13T00:44:41.087Z,101418.09
2022-12-13T00:47:13.050Z,101415.22
2022-12-13T00:49:44.993Z,101415.03
2022-12-13T00:52:17.029Z,101407.19
2022-12-13T00:54:48.967Z,101408.94
2022-12-13T00:57:21.337Z,101410.63
2022-12-13T00:59:53.361Z,101403.56
2022-12-13T01:02:25.456Z,101401.09
2022-12-13T01:04:57.368Z,101401.28
2022-12-13T01:07:29.326Z,101407.44
2022-12-13T01:10:01.388Z,101405.13
2022-12-13T01:12:35.074Z,101408.84
2022-12-13T01:15:07.935Z,101396.28
2022-12-13T01:17:39.867Z,101400.69
2022-12-13T01:20:12.247Z,101399.09
2022-12-13T01:22:44.198Z,101393.91
2022-12-13T01:25:16.529Z,101400.88
2022-12-13T01:27:48.671Z,101393.19
2022-12-13T01:30:20.612Z,101391.34
2022-12-13T01:32:52.753Z,101394.63
2022-12-13T01:35:24.765Z,101390.91
2022-12-13T01:37:58.329Z,101397.84
2022-12-13T01:40:30.324Z,101400.03
2022-12-13T01:43:02.847Z,101391.41
2022-12-13T01:45:46.734Z,101396.09
2022-12-13T01:48:27.599Z,101396.97
2022-12-13T01:51:04.040Z,101396.25
2022-12-13T01:53:39.571Z,101385.59
2022-12-13T01:56:24.387Z,101385.69
2022-12-13T01:58:57.872Z,101385.75
2022-12-13T02:01:30.413Z,101390.97
2022-12-13T02:04:02.574Z,101397.06
2022-12-13T02:06:38.911Z,101399.34
2022-12-13T02:09:11.620Z,101392.91
2022-12-13T02:11:44.880Z,101386.72
2022-12-13T02:14:16.823Z,101389.09
2022-12-13T02:17:21.167Z,101391.03
2022-12-13T02:20:35.781Z,101384.06
2022-12-13T02:23:41.428Z,101384.97
2022-12-13T02:26:31.353Z,101385.03
2022-12-13T02:29:30.778Z,101385.91
2022-12-13T02:32:25.537Z,101386.63
2022-12-13T02:35:07.702Z,101381.44
2022-12-13T02:37:59.906Z,101378.06
2022-12-13T02:41:00.910Z,101379.13
2022-12-13T02:44:01.275Z,101367.22
2022-12-13T02:46:39.626Z,101373.13
2022-12-13T02:49:13.279Z,101365.19
2022-12-13T02:51:46.023Z,101374.19
2022-12-13T02:54:18.081Z,101366.69
2022-12-13T02:57:00.458Z,101366.25
2022-12-13T02:59:38.587Z,101360.34
2022-12-13T03:03:01.475Z,101365.09
2022-12-13T03:06:24.361Z,101374.16
2022-12-13T03:09:08.326Z,101354.78
2022-12-13T03:12:36.674Z,101356.91
2022-12-13T03:15:34.988Z,101355.59
2022-12-13T03:18:19.153Z,101349.94
2022-12-13T03:20:55.424Z,101353.47
2022-12-13T03:23:28.301Z,101351.00
2022-12-13T03:26:07.209Z,101356.81
2022-12-13T03:28:39.736Z,101356.66
2022-12-13T03:31:11.720Z,101348.81
2022-12-13T03:33:43.783Z,101360.34
2022-12-13T03:36:17.003Z,101350.72
2022-12-13T03:38:52.438Z,101351.16
2022-12-13T03:41:31.591Z,101348.44
2022-12-13T03:44:06.581Z,101343.31
2022-12-13T03:46:39.119Z,101347.13
2022-12-13T03:49:15.364Z,101348.88
2022-12-13T03:51:49.243Z,101344.81
2022-12-13T03:54:21.259Z,101342.00
2022-12-13T03:56:53.234Z,101337.94
2022-12-13T03:59:25.203Z,101335.41
2022-12-13T04:01:57.286Z,101343.25
2022-12-13T04:04:29.436Z,101349.31
2022-12-13T04:07:01.355Z,101346.59
2022-12-13T04:09:33.322Z,101354.88
2022-12-13T04:12:24.210Z,101346.25
2022-12-13T04:14:56.137Z,101341.22
2022-12-13T04:17:28.092Z,101338.91
2022-12-13T04:20:00.180Z,101331.06
2022-12-13T04:22:32.115Z,101327.72
2022-12-13T04:25:05.570Z,101322.34
2022-12-13T04:27:38.169Z,101320.41
2022-12-13T04:30:10.881Z,101327.00
2022-12-13T04:32:42.856Z,101326.13
2022-12-13T04:35:15.159Z,101321.50
2022-12-13T04:37:47.206Z,101325.91
2022-12-13T04:40:21.628Z,101320.72
2022-12-13T04:42:54.743Z,101316.50
2022-12-13T04:45:27.153Z,101312.47
2022-12-13T04:47:59.118Z,101317.59
2022-12-13T04:50:31.101Z,101326.22
2022-12-13T04:53:03.026Z,101324.38
2022-12-13T04:55:37.043Z,101327.91
2022-12-13T04:58:09.011Z,101323.16
2022-12-13T05:00:44.247Z,101315.91
2022-12-13T05:03:16.511Z,101314.66
2022-12-13T05:05:48.490Z,101313.50
2022-12-13T05:08:20.633Z,101319.78
2022-12-13T05:10:54.734Z,101318.53
2022-12-13T05:13:26.721Z,101311.31
2022-12-13T05:16:04.372Z,101312.38
2022-12-13T05:18:37.165Z,101310.88
2022-12-13T05:21:11.816Z,101308.75
2022-12-13T05:23:43.785Z,101307.41
2022-12-13T05:26:15.745Z,101305.47
2022-12-13T05:28:47.683Z,101299.94
2022-12-13T05:31:22.631Z,101306.81
2022-12-13T05:34:01.257Z,101298.91
2022-12-13T05:36:33.705Z,101315.81
2022-12-13T05:39:05.648Z,101312.38
2022-12-13T05:42:01.154Z,101315.22
2022-12-13T05:44:34.176Z,101309.81
2022-12-13T05:47:06.094Z,101303.03
2022-12-13T05:49:39.635Z,101303.28
2022-12-13T05:52:20.163Z,101306.44
2022-12-13T05:55:01.035Z,101302.91
2022-12-13T05:57:34.175Z,101298.97
2022-12-13T06:00:28.534Z,101294.47
2022-12-13T06:03:01.944Z,101298.50
2022-12-13T06:05:34.324Z,101293.94
2022-12-13T06:08:23.900Z,101293.31
2022-12-13T06:11:10.901Z,101292.94
2022-12-13T06:13:44.743Z,101288.53
2022-12-13T06:16:22.807Z,101290.22
2022-12-13T06:19:03.653Z,101293.13
2022-12-13T06:21:41.433Z,101295.25
2022-12-13T06:24:20.173Z,101296.53
2022-12-13T06:26:53.300Z,101296.34
2022-12-13T06:29:26.144Z,101287.28
2022-12-13T06:32:02.389Z,101300.69
2022-12-13T06:34:36.906Z,101306.16
2022-12-13T06:37:13.415Z,101310.81
2022-12-13T06:39:45.393Z,101303.28
2022-12-13T06:42:22.164Z,101308.13
2022-12-13T06:44:55.828Z,101305.81
2022-12-13T06:47:31.345Z,101312.06
2022-12-13T06:50:05.998Z,101300.38
2022-12-13T06:52:38.167Z,101306.47
2022-12-13T06:55:10.355Z,101305.81
2022-12-13T06:57:43.919Z,101305.09
2022-12-13T07:00:21.743Z,101308.47
2022-12-13T07:02:55.645Z,101311.09
2022-12-13T07:05:27.725Z,101306.09
2022-12-13T07:07:59.811Z,101309.88
2022-12-13T07:10:32.859Z,101309.22
2022-12-13T07:13:04.765Z,101315.63
2022-12-13T07:15:36.777Z,101309.72
2022-12-13T07:18:08.729Z,101313.16
2022-12-13T07:20:41.896Z,101314.03
2022-12-13T07:23:14.153Z,101312.50
2022-12-13T07:25:53.846Z,101317.00
2022-12-13T07:28:25.932Z,101316.28
2022-12-13T07:31:02.562Z,101320.34
2022-12-13T07:33:35.071Z,101320.59
2022-12-13T07:36:12.423Z,101313.94
2022-12-13T07:38:45.300Z,101311.06
2022-12-13T07:41:23.400Z,101316.75
2022-12-13T07:43:56.490Z,101321.47
2022-12-13T07:46:32.487Z,101322.50
2022-12-13T07:49:06.149Z,101323.72
2022-12-13T07:51:38.809Z,101325.63
2022-12-13T07:54:10.770Z,101327.31
2022-12-13T07:56:42.758Z,101335.63
2022-12-13T07:59:14.840Z,101335.47
2022-12-13T08:01:46.848Z,101340.75
2022-12-13T08:04:18.954Z,101338.69
2022-12-13T08:06:50.940Z,101341.66
2022-12-13T08:09:23.477Z,101345.34
2022-12-13T08:11:55.563Z,101342.91
2022-12-13T08:14:28.141Z,101341.91
2022-12-13T08:17:00.185Z,101341.91
2022-12-13T08:19:32.131Z,101343.31
2022-12-13T08:22:04.383Z,101339.50
2022-12-13T08:24:46.202Z,101340.06
2022-12-13T08:27:18.431Z,101341.41
2022-12-13T08:29:50.494Z,101341.09
2022-12-13T08:32:22.537Z,101339.59
2022-12-13T08:34:54.444Z,101339.84
2022-12-13T08:37:26.352Z,101333.09
2022-12-13T08:39:58.295Z,101334.44
2022-12-13T08:42:30.245Z,101325.63
2022-12-13T08:45:02.167Z,101332.69
2022-12-13T08:47:39.870Z,101331.06
2022-12-13T08:50:13.612Z,101323.34
2022-12-13T08:52:45.868Z,101327.34
2022-12-13T08:55:21.113Z,101327.81
2022-12-13T08:58:09.659Z,101334.25
2022-12-13T09:00:42.756Z,101341.84
2022-12-13T09:03:14.820Z,101337.63
2022-12-13T09:05:46.895Z,101328.69
2022-12-13T09:08:25.205Z,101333.41
2022-12-13T09:11:00.070Z,101332.63
2022-12-13T09:13:35.448Z,101334.22
2022-12-13T09:16:24.616Z,101342.81
2022-12-13T09:18:56.756Z,101337.41
2022-12-13T09:21:31.656Z,101342.75
2022-12-13T09:24:04.267Z,101352.84
2022-12-13T09:26:38.161Z,101356.38
2022-12-13T09:29:11.868Z,101352.59
2022-12-13T09:31:48.312Z,101360.38
2022-12-13T09:34:24.731Z,101357.09
2022-12-13T09:37:01.746Z,101361.81
2022-12-13T09:39:33.896Z,101362.53
2022-12-13T09:42:21.041Z,101359.41
2022-12-13T09:45:03.727Z,101356.53
2022-12-13T09:47:46.850Z,101350.63
2022-12-13T09:50:27.718Z,101351.34
2022-12-13T09:53:02.730Z,101349.91
2022-12-13T09:55:47.771Z,101349.66
2022-12-13T09:58:28.699Z,101349.59
2022-12-13T10:01:00.818Z,101351.09
2022-12-13T10:03:32.820Z,101351.75
2022-12-13T10:06:23.423Z,101343.47
2022-12-13T10:08:59.179Z,101342.00
2022-12-13T10:11:31.312Z,101340.38
2022-12-13T10:14:12.783Z,101335.94
2022-12-13T10:16:51.156Z,101335.19
2022-12-13T10:19:40.401Z,101327.94
2022-12-13T10:22:16.427Z,101326.28
2022-12-13T10:25:00.327Z,101327.91
2022-12-13T10:27:47.760Z,101334.38
2022-12-13T10:30:28.770Z,101324.41
2022-12-13T10:33:05.287Z,101328.75
2022-12-13T10:35:39.574Z,101329.09
2022-12-13T10:38:14.587Z,101327.34
2022-12-13T10:40:49.093Z,101321.13
2022-12-13T10:43:24.097Z,101327.19
2022-12-13T10:45:58.913Z,101317.16
2022-12-13T10:48:38.328Z,101308.97
2022-12-13T10:51:14.408Z,101307.03
2022-12-13T10:53:54.837Z,101303.84
2022-12-13T10:57:00.229Z,101308.25
2022-12-13T10:59:38.428Z,101304.88
2022-12-13T11:02:28.523Z,101303.41
2022-12-13T11:05:23.015Z,101295.72
2022-12-13T11:07:56.196Z,101298.00
2022-12-13T11:10:32.930Z,101283.53
2022-12-13T11:13:07.490Z,101285.50
2022-12-13T11:15:39.691Z,101284.50
2022-12-13T11:18:23.017Z,101275.16
2022-12-13T11:21:00.773Z,101274.69
2022-12-13T11:23:38.424Z,101278.75
2022-12-13T11:26:24.346Z,101277.94
2022-12-13T11:29:15.032Z,101272.75
2022-12-13T11:32:22.673Z,101267.03
2022-12-13T11:35:26.296Z,101272.19
2022-12-13T11:38:45.891Z,101268.06
2022-12-13T11:41:39.617Z,101259.97
2022-12-13T11:44:34.574Z,101264.03
2022-12-13T11:47:24.864Z,101260.41
2022-12-13T11:49:57.139Z,101264.28
2022-12-13T11:52:47.008Z,101255.69
2022-12-13T11:55:39.607Z,101256.34
2022-12-13T11:59:01.277Z,101257.44
2022-12-13T12:01:51.740Z,101249.38
2022-12-13T12:04:50.081Z,101250.34
2022-12-13T12:08:12.651Z,101245.00
2022-12-13T12:10:49.832Z,101234.25
2022-12-13T12:13:50.761Z,101231.69
2022-12-13T12:16:35.197Z,101231.31
2022-12-13T12:19:15.579Z,101228.88
2022-12-13T12:22:19.148Z,101228.13
2022-12-13T12:25:21.832Z,101211.69
2022-12-13T12:28:26.757Z,101223.97
2022-12-13T12:31:14.546Z,101216.19
2022-12-13T12:34:16.675Z,101224.63
2022-12-13T12:37:23.792Z,101220.44
2022-12-13T12:40:05.987Z,101218.47
2022-12-13T12:43:14.053Z,101221.25
2022-12-13T12:45:57.604Z,101228.34
2022-12-13T12:49:01.666Z,101224.78
2022-12-13T12:52:22.295Z,101221.06
2022-12-13T12:55:31.011Z,101219.63
2022-12-13T12:58:17.833Z,101224.66
2022-12-13T13:00:52.495Z,101216.66
2022-12-13T13:03:31.680Z,101211.72
2022-12-13T13:06:12.857Z,101215.28
2022-12-13T13:08:59.227Z,101211.34
2022-12-13T13:11:43.135Z,101206.44
2022-12-13T13:14:36.548Z,101206.63
2022-12-13T13:17:17.289Z,101210.47
2022-12-13T13:20:18.404Z,101206.97
2022-12-13T13:23:38.677Z,101213.91
2022-12-13T13:28:47.953Z,101204.94
2022-12-13T13:31:20.093Z,101211.97
2022-12-13T13:33:52.422Z,101205.06
2022-12-13T13:36:40.584Z,101210.84
2022-12-13T13:40:00.039Z,101211.22
2022-12-13T13:42:33.068Z,101215.56
2022-12-13T13:45:27.042Z,101205.88
2022-12-13T13:48:19.845Z,101204.38
2022-12-13T13:51:49.342Z,101195.59
2022-12-13T13:55:00.077Z,101200.81
2022-12-13T13:58:26.469Z,101198.34
2022-12-13T14:01:32.266Z,101189.75
2022-12-13T14:04:43.882Z,101185.25
2022-12-13T14:07:55.404Z,101197.75
2022-12-13T14:11:09.096Z,101202.59
2022-12-13T14:14:21.803Z,101192.94
2022-12-13T14:17:50.608Z,101190.97
2022-12-13T14:20:52.794Z,101196.19
2022-12-13T14:23:59.033Z,101188.53
2022-12-13T14:26:54.112Z,101196.06
2022-12-13T14:29:33.059Z,101194.25
2022-12-13T14:32:26.424Z,101196.56
2022-12-13T14:35:26.249Z,101194.16
2022-12-13T14:38:08.179Z,101196.97
2022-12-13T14:40:52.178Z,101201.84
2022-12-13T14:43:30.917Z,101199.28
2022-12-13T14:46:07.295Z,101202.66
2022-12-13T14:48:55.332Z,101194.94
2022-12-13T14:51:38.542Z,101204.41
2022-12-13T14:54:25.719Z,101208.53
2022-12-13T14:57:04.710Z,101202.41
2022-12-13T14:59:49.969Z,101197.69
2022-12-13T15:02:31.224Z,101197.78
2022-12-13T15:05:06.076Z,101196.03
2022-12-13T15:07:42.391Z,101198.44
2022-12-13T15:10:40.296Z,101189.81
2022-12-13T15:13:59.752Z,101197.63
2022-12-13T15:16:31.800Z,101194.94
2022-12-13T15:19:30.816Z,101193.91
2022-12-13T15:22:07.668Z,101191.34
2022-12-13T15:24:41.917Z,101191.63
2022-12-13T15:27:20.522Z,101192.28
2022-12-13T15:29:54.342Z,101199.38
2022-12-13T15:32:26.522Z,101196.97
2022-12-13T15:35:15.883Z,101196.16
2022-12-13T15:37:48.155Z,101197.69
2022-12-13T15:40:20.349Z,101202.09
2022-12-13T15:42:52.543Z,101198.44
2022-12-13T15:45:33.163Z,101200.94
2022-12-13T15:48:27.924Z,101203.16
2022-12-13T15:51:29.124Z,101203.16
2022-12-13T15:54:19.321Z,101198.75
2022-12-13T15:57:17.597Z,101194.16
2022-12-13T16:00:30.180Z,101193.34
2022-12-13T16:03:19.209Z,101180.66
2022-12-13T16:05:56.755Z,101186.31
2022-12-13T16:08:32.144Z,101178.56
2022-12-13T16:11:05.851Z,101177.75
2022-12-13T16:13:38.827Z,101172.22
2022-12-13T16:16:28.299Z,101175.03
2022-12-13T16:19:01.280Z,101169.72
2022-12-13T16:21:33.340Z,101161.22
2022-12-13T16:24:05.679Z,101165.59
2022-12-13T16:26:37.748Z,101162.41
2022-12-13T16:29:14.860Z,101160.06
2022-12-13T16:31:47.479Z,101153.16
2022-12-13T16:34:19.799Z,101150.00
2022-12-13T16:36:59.818Z,101150.47
2022-12-13T16:39:32.924Z,101146.00
2022-12-13T16:42:05.082Z,101143.22
2022-12-13T16:44:38.870Z,101142.56
2022-12-13T16:47:20.579Z,101137.28
2022-12-13T16:50:10.379Z,101135.31
2022-12-13T16:52:42.469Z,101139.00
2022-12-13T16:55:14.613Z,101136.28
2022-12-13T16:58:00.093Z,101137.75
2022-12-13T17:00:32.159Z,101141.94
2022-12-13T17:03:05.717Z,101144.28
2022-12-13T17:05:37.699Z,101138.78
2022-12-13T17:08:16.235Z,101131.53
2022-12-13T17:10:48.163Z,101129.09
2022-12-13T17:13:30.278Z,101119.66
2022-12-13T17:16:05.766Z,101124.63
2022-12-13T17:18:37.770Z,101126.25
2022-12-13T17:21:11.150Z,101126.38
2022-12-13T17:23:43.539Z,101121.19
2022-12-13T17:26:15.531Z,101114.91
2022-12-13T17:28:47.526Z,101119.97
2022-12-13T17:31:20.407Z,101122.53
2022-12-13T17:33:52.794Z,101123.69
2022-12-13T17:36:26.912Z,101132.56
2022-12-13T17:38:59.191Z,101130.63
2022-12-13T17:41:31.226Z,101139.34
2022-12-13T17:44:03.213Z,101135.03
2022-12-13T17:46:35.223Z,101141.03
2022-12-13T17:49:07.190Z,101145.72
2022-12-13T17:51:39.237Z,101143.00
2022-12-13T17:54:12.155Z,101146.38
2022-12-13T17:56:44.192Z,101135.59
2022-12-13T17:59:17.536Z,101139.03
2022-12-13T18:01:50.764Z,101140.88
2022-12-13T18:04:23.527Z,101145.78
2022-12-13T18:06:56.615Z,101147.09
2022-12-13T18:09:28.755Z,101144.22
2022-12-13T18:12:00.716Z,101140.72
2022-12-13T18:14:32.684Z,101137.19
2022-12-13T18:17:05.310Z,101138.13
2022-12-13T18:19:37.256Z,101129.66
2022-12-13T18:22:09.469Z,101127.91
2022-12-13T18:24:41.413Z,101122.69
2022-12-13T18:27:13.366Z,101121.75
2022-12-13T18:29:58.401Z,101123.44
2022-12-13T18:32:33.423Z,101115.00
2022-12-13T18:35:06.152Z,101118.56
2022-12-13T18:37:38.329Z,101121.13
2022-12-13T18:40:10.927Z,101124.66
2022-12-13T18:42:42.938Z,101121.88
2022-12-13T18:45:14.881Z,101122.00
2022-12-13T18:47:47.180Z,101122.09
2022-12-13T18:50:19.633Z,101116.97
2022-12-13T18:52:52.189Z,101121.44
2022-12-13T18:55:24.835Z,101121.44
2022-12-13T18:57:57.065Z,101126.63
2022-12-13T19:00:29.938Z,101118.88
2022-12-13T19:03:02.079Z,101115.28
2022-12-13T19:05:34.091Z,101106.00
2022-12-13T19:08:06.144Z,101094.41
2022-12-13T19:10:38.422Z,101098.47
2022-12-13T19:13:11.039Z,101094.22
2022-12-13T19:15:43.156Z,101090.63
2022-12-13T19:18:15.339Z,101097.38
2022-12-13T19:20:53.709Z,101094.00
2022-12-13T19:23:26.230Z,101094.22
2022-12-13T19:25:58.527Z,101089.22
2022-12-13T19:28:30.583Z,101089.84
2022-12-13T19:31:11.409Z,101085.44
2022-12-13T19:33:44.040Z,101085.53
2022-12-13T19:36:16.234Z,101082.66
2022-12-13T19:38:48.346Z,101081.47
2022-12-13T19:41:20.768Z,101077.56
2022-12-13T19:43:53.682Z,101083.41
2022-12-13T19:46:25.865Z,101074.34
2022-12-13T19:48:57.871Z,101065.56
2022-12-13T19:51:34.417Z,101061.25
2022-12-13T19:54:10.765Z,101061.25
2022-12-13T19:56:42.866Z,101055.81
2022-12-13T19:59:14.994Z,101056.22
2022-12-13T20:01:47.067Z,101061.41
2022-12-13T20:04:20.419Z,101066.69
2022-12-13T20:06:52.536Z,101059.94
2022-12-13T20:09:24.885Z,101057.25
2022-12-13T20:11:57.110Z,101060.75
2022-12-13T20:14:29.604Z,101054.03
2022-12-13T20:17:01.666Z,101055.47
2022-12-13T20:19:33.756Z,101045.03
2022-12-13T20:22:06.238Z,101052.63
2022-12-13T20:24:38.449Z,101049.44
2022-12-13T20:27:10.630Z,101052.72
2022-12-13T20:29:42.755Z,101043.69
2022-12-13T20:32:21.450Z,101042.16
2022-12-13T20:34:55.133Z,101038.56
2022-12-13T20:37:27.658Z,101035.47
2022-12-13T20:40:00.464Z,101028.50
2022-12-13T20:42:33.580Z,101030.25
2022-12-13T20:45:06.512Z,101032.09
2022-12-13T20:47:38.711Z,101024.03
2022-12-13T20:50:11.079Z,101022.28
2022-12-13T20:52:47.707Z,101022.41
2022-12-13T20:55:22.779Z,101031.69
2022-12-13T20:57:54.755Z,101028.91
2022-12-13T21:00:27.000Z,101028.50
2022-12-13T21:02:59.191Z,101021.63
2022-12-13T21:05:31.165Z,101007.00
2022-12-13T21:08:21.621Z,101002.19
2022-12-13T21:11:03.441Z,101004.75
2022-12-13T21:13:37.148Z,101012.25
2022-12-13T21:16:09.242Z,101001.38
2022-12-13T21:18:41.511Z,101005.88
2022-12-13T21:21:13.622Z,101009.41
2022-12-13T21:23:45.653Z,101002.75
2022-12-13T21:26:18.393Z,101005.31
2022-12-13T21:28:55.859Z,101005.25
2022-12-13T21:31:29.483Z,101003.25
2022-12-13T21:34:02.755Z,101000.13
2022-12-13T21:36:41.217Z,100997.56
2022-12-13T21:39:23.015Z,101001.88
2022-12-13T21:41:55.741Z,101002.91
2022-12-13T21:44:28.507Z,100999.47
2022-12-13T21:47:15.845Z,100996.19
2022-12-13T21:49:48.442Z,100991.97
2022-12-13T21:52:20.884Z,100987.63
2022-12-13T21:55:03.411Z,100991.16
2022-12-13T21:58:07.783Z,100980.84
2022-12-13T22:00:39.993Z,100980.03
2022-12-13T22:03:12.303Z,100982.13
2022-12-13T22:05:44.738Z,100980.31
2022-12-13T22:08:16.699Z,100973.34
2022-12-13T22:11:15.108Z,100968.72
2022-12-13T22:13:50.015Z,100965.53
2022-12-13T22:16:22.111Z,100966.81
2022-12-13T22:18:55.725Z,100965.00
2022-12-13T22:21:27.774Z,100959.16
2022-12-13T22:23:59.772Z,100954.84
2022-12-13T22:26:31.755Z,100949.88
2022-12-13T22:29:04.153Z,100956.44
2022-12-13T22:31:36.189Z,100950.69
2022-12-13T22:34:09.136Z,100946.69
2022-12-13T22:36:41.194Z,100948.22
2022-12-13T22:39:18.642Z,100956.69
2022-12-13T22:41:52.246Z,100948.50
2022-12-13T22:44:24.280Z,100947.78
2022-12-13T22:46:56.283Z,100949.13
2022-12-13T22:49:28.294Z,100942.59
2022-12-13T22:52:00.354Z,100939.72
2022-12-13T22:54:32.309Z,100941.06
2022-12-13T22:57:04.628Z,100937.63
2022-12-13T22:59:36.682Z,100931.88
2022-12-13T23:02:09.995Z,100939.72
2022-12-13T23:04:42.200Z,100935.63
2022-12-13T23:07:14.181Z,100939.06
2022-12-13T23:09:46.255Z,100932.59
2022-12-13T23:12:37.138Z,100930.59
2022-12-13T23:15:10.234Z,100928.91
2022-12-13T23:17:42.236Z,100925.09
2022-12-13T23:20:14.258Z,100921.72
2022-12-13T23:22:46.400Z,100917.75
2022-12-13T23:25:18.370Z,100908.16
2022-12-13T23:27:50.300Z,100902.97
2022-12-13T23:30:22.200Z,100899.94
2022-12-13T23:32:55.964Z,100911.66
2022-12-13T23:35:27.931Z,100904.06
2022-12-13T23:37:59.890Z,100900.94
2022-12-13T23:40:31.841Z,100906.84
2022-12-13T23:43:03.948Z,100900.41
2022-12-13T23:45:35.861Z,100900.59
2022-12-13T23:48:07.806Z,100904.47
2022-12-13T23:50:39.719Z,100892.28
2022-12-13T23:53:11.688Z,100897.22
2022-12-13T23:55:43.688Z,100894.75
2022-12-13T23:58:22.632Z,100890.19
